Time;durP1;ratioP1;P1;durP2;ratioP2;P2;SDS_P1;SDS_P2;PMS_P1;PMS_P2;Temp;Humidity;BMP_temperature;BMP_pressure;BME280_temperature;BME280_humidity;BME280_pressure;Samples;Min_cycle;Max_cycle;Signal;HPM_P1;HPM_P2
2023/10/13 00:05:09;;;;;;;9.30;6.00;;;;;;;18.86;71.23;99168.72;7298042;39;20264;31
2023/10/13 00:10:45;;;;;;;12.20;5.60;;;;;;;18.77;71.71;99180.97;7286231;40;20251;31
2023/10/13 00:16:09;;;;;;;10.10;5.40;;;;;;;18.73;71.95;99177.84;7239472;40;20242;31
2023/10/13 00:21:38;;;;;;;9.30;6.00;;;;;;;18.72;72.46;99170.72;7258237;40;20261;31
2023/10/13 00:27:30;;;;;;;13.10;6.10;;;;;;;18.61;73.52;99165.94;7335749;39;20256;31
2023/10/13 00:33:04;;;;;;;10.93;5.33;;;;;;;18.62;73.46;99162.16;7340590;39;20328;31
2023/10/13 00:38:39;;;;;;;10.30;5.60;;;;;;;18.54;73.76;99154.22;7339241;39;20236;31
2023/10/13 00:44:16;;;;;;;11.47;6.13;;;;;;;18.48;73.84;99157.78;7268946;39;20249;31
2023/10/13 00:49:50;;;;;;;14.03;6.03;;;;;;;18.51;74.35;99153.78;7299437;39;20251;31
2023/10/13 00:55:26;;;;;;;11.67;6.43;;;;;;;18.42;73.48;99151.31;7275380;39;20245;31
2023/10/13 01:01:17;;;;;;;10.27;6.30;;;;;;;18.37;74.06;99151.12;7299395;39;20303;31
2023/10/13 01:06:37;;;;;;;10.82;5.82;;;;;;;18.30;73.92;99142.13;7118068;39;21195;31
2023/10/13 01:12:11;;;;;;;9.90;5.10;;;;;;;18.30;74.54;99147.59;7275596;40;20273;31
2023/10/13 01:17:47;;;;;;;8.87;5.27;;;;;;;18.31;74.32;99132.91;7304891;39;20427;31
2023/10/13 01:23:25;;;;;;;10.00;5.40;;;;;;;18.34;74.26;99118.00;7258061;40;20242;31
2023/10/13 01:28:46;;;;;;;9.50;5.20;;;;;;;18.51;73.82;99118.31;7261567;40;20313;31
2023/10/13 01:39:26;;;;;;;8.50;5.03;;;;;;;18.48;73.79;99098.56;7399750;39;20266;31
2023/10/13 01:50:14;;;;;;;9.50;5.50;;;;;;;18.44;73.57;99091.03;7353675;39;20264;31
2023/10/13 01:55:44;;;;;;;8.70;4.90;;;;;;;18.49;73.54;99091.22;7359492;39;20239;31
2023/10/13 02:01:27;;;;;;;11.75;5.65;;;;;;;18.54;73.30;99096.91;7315301;39;20256;31
2023/10/13 02:12:07;;;;;;;9.05;5.70;;;;;;;18.33;73.58;99091.75;7303568;39;20376;31
2023/10/13 02:22:32;;;;;;;11.50;5.55;;;;;;;18.15;73.24;99078.00;7334579;39;20278;31
2023/10/13 02:33:11;;;;;;;9.30;5.60;;;;;;;17.89;74.01;99074.34;7372601;39;20262;31
2023/10/13 02:38:46;;;;;;;12.20;5.05;;;;;;;17.85;73.31;99072.28;7405546;39;20243;31
2023/10/13 02:44:27;;;;;;;8.50;5.70;;;;;;;17.73;73.99;99066.62;7346937;39;20278;31
2023/10/13 02:50:00;;;;;;;8.80;5.25;;;;;;;17.78;74.10;99055.94;7318804;39;20442;31
2023/10/13 02:55:25;;;;;;;9.80;5.40;;;;;;;17.69;74.20;99056.37;7264780;39;20238;31
2023/10/13 03:06:59;;;;;;;15.77;5.57;;;;;;;17.42;76.52;99045.53;7260586;40;20276;31
2023/10/13 03:17:32;;;;;;;12.90;5.20;;;;;;;17.68;75.85;99038.38;7419754;39;20267;31
2023/10/13 03:28:05;;;;;;;10.50;4.50;;;;;;;17.86;76.10;99022.12;7381354;39;20282;31
2023/10/13 03:33:44;;;;;;;9.97;5.10;;;;;;;17.93;74.75;99031.97;7337772;39;20240;31
2023/10/13 03:39:07;;;;;;;12.00;5.30;;;;;;;17.98;75.27;99020.41;7285365;40;20251;31
2023/10/13 03:44:39;;;;;;;18.90;5.45;;;;;;;17.93;75.16;99007.41;7303705;39;20240;31
2023/10/13 03:50:15;;;;;;;8.53;4.97;;;;;;;17.97;75.21;98999.62;7247789;40;20245;31
2023/10/13 03:55:19;;;;;;;8.40;5.10;;;;;;;18.01;74.91;99012.59;7305425;39;20319;31
2023/10/13 04:00:56;;;;;;;9.30;4.70;;;;;;;17.97;74.39;98986.81;7341812;39;20282;31
2023/10/13 04:06:59;;;;;;;8.93;5.13;;;;;;;17.96;74.29;98987.87;7302761;39;20244;31
2023/10/13 04:13:10;;;;;;;9.60;5.50;;;;;;;17.96;74.35;98976.97;7362247;39;20377;31
2023/10/13 04:17:58;;;;;;;11.20;5.50;;;;;;;17.94;74.45;98973.63;7430482;39;20257;31
2023/10/13 04:23:19;;;;;;;8.63;5.53;;;;;;;17.90;74.57;98969.66;7348247;39;20355;31
2023/10/13 04:28:50;;;;;;;11.37;5.43;;;;;;;17.80;74.73;98966.59;7324664;39;20290;31
2023/10/13 04:39:29;;;;;;;12.40;5.40;;;;;;;17.64;75.28;98942.53;7358294;39;20270;31
2023/10/13 04:50:01;;;;;;;11.13;5.03;;;;;;;17.55;75.24;98941.91;7359068;39;20253;31
2023/10/13 05:01:23;;;;;;;13.33;5.00;;;;;;;17.55;75.20;98935.66;7349242;39;20259;31
2023/10/13 05:45:22;;;;;;;10.23;5.27;;;;;;;17.38;75.17;98948.94;7410067;39;20262;31
2023/10/13 06:30:27;;;;;;;16.20;6.15;;;;;;;16.95;74.70;98935.06;7402722;39;20258;31
2023/10/13 06:36:09;;;;;;;11.17;5.83;;;;;;;16.97;74.41;98938.41;7360529;39;20368;31
2023/10/13 06:41:31;;;;;;;13.70;5.73;;;;;;;16.97;73.90;98938.41;7376348;39;20246;31
2023/10/13 06:47:05;;;;;;;12.97;5.53;;;;;;;17.06;74.42;98939.84;7325885;39;20290;31
2023/10/13 06:52:41;;;;;;;14.10;5.70;;;;;;;17.18;74.10;98955.50;7300939;39;20261;31
2023/10/13 06:58:17;;;;;;;9.80;6.00;;;;;;;17.27;73.87;98948.78;7271271;40;20243;31
2023/10/13 07:03:53;;;;;;;9.50;5.70;;;;;;;17.37;72.80;98949.16;7295059;39;20273;31
2023/10/13 07:09:39;;;;;;;11.20;6.07;;;;;;;17.46;73.32;98942.41;7258524;40;20276;31
2023/10/13 07:14:59;;;;;;;9.25;5.30;;;;;;;17.55;73.12;98938.38;7282193;39;20278;31
2023/10/13 07:25:37;;;;;;;19.05;8.90;;;;;;;17.83;73.05;98948.94;7312511;39;20402;31
2023/10/13 07:31:15;;;;;;;15.10;9.55;;;;;;;17.97;72.81;98945.91;7279363;40;20266;31
2023/10/13 07:36:51;;;;;;;14.10;6.60;;;;;;;18.09;72.59;98942.47;7316584;39;20247;31
2023/10/13 07:42:31;;;;;;;9.27;5.77;;;;;;;18.14;72.79;98942.66;7238624;40;20260;31
2023/10/13 07:47:47;;;;;;;8.97;5.13;;;;;;;18.26;72.35;98944.44;7250886;40;20280;31
2023/10/13 07:53:23;;;;;;;12.95;5.70;;;;;;;18.33;72.15;98941.66;7259060;40;20481;31
2023/10/13 07:59:01;;;;;;;10.30;5.50;;;;;;;18.48;71.88;98947.59;7246577;39;20448;31
2023/10/13 08:04:36;;;;;;;9.95;5.30;;;;;;;18.70;70.99;98940.72;7250503;39;20490;31
2023/10/13 08:10:16;;;;;;;7.47;5.10;;;;;;;18.93;70.40;98940.06;7236041;40;20250;31
2023/10/13 08:15:52;;;;;;;13.13;5.70;;;;;;;19.13;70.78;98940.66;7225534;40;20268;31
2023/10/13 08:21:31;;;;;;;10.63;5.30;;;;;;;19.37;70.29;98926.09;7181511;40;20263;31
2023/10/13 08:32:56;;;;;;;8.10;5.20;;;;;;;19.62;70.51;98934.19;7169115;40;20250;31
2023/10/13 08:38:17;;;;;;;9.65;5.10;;;;;;;19.83;69.82;98934.75;7202095;40;20234;31
2023/10/13 08:43:51;;;;;;;10.80;5.00;;;;;;;19.97;68.61;98917.91;7308703;39;20287;31
2023/10/13 08:54:35;;;;;;;7.90;4.60;;;;;;;20.43;66.13;98928.16;7324845;39;20322;31
2023/10/13 09:11:28;;;;;;;7.23;4.30;;;;;;;20.95;63.37;98898.94;7273375;39;20252;31
2023/10/13 09:17:34;;;;;;;6.65;4.37;;;;;;;21.21;63.09;98889.38;7294587;40;20246;31
2023/10/13 09:22:36;;;;;;;10.58;5.18;;;;;;;21.33;61.97;98883.84;7263336;40;20245;31
2023/10/13 09:28:14;;;;;;;9.90;6.03;;;;;;;21.45;61.88;98882.75;7239234;40;20319;31
2023/10/13 09:33:35;;;;;;;10.55;4.50;;;;;;;21.55;61.53;98871.13;7317625;39;20255;31
2023/10/13 09:39:13;;;;;;;8.40;4.20;;;;;;;21.67;60.11;98868.34;7339234;39;20243;31
2023/10/13 09:44:55;;;;;;;11.35;4.87;;;;;;;21.83;59.52;98867.53;7299526;39;20257;31
2023/10/13 09:50:33;;;;;;;9.43;4.12;;;;;;;21.96;59.01;98856.28;7245570;40;20339;31
2023/10/13 09:56:11;;;;;;;6.97;4.70;;;;;;;22.16;58.73;98853.84;7329508;39;20254;31
2023/10/13 10:01:50;;;;;;;6.97;3.97;;;;;;;22.34;57.57;98844.53;7249293;40;20347;31
2023/10/13 10:07:01;;;;;;;8.90;4.35;;;;;;;22.56;57.77;98842.66;7267385;39;20345;31
2023/10/13 10:12:38;;;;;;;14.25;4.55;;;;;;;22.70;54.55;98855.00;7306993;39;20365;31
2023/10/13 10:18:15;;;;;;;6.72;3.78;;;;;;;23.12;52.12;98837.97;7285310;40;20274;31
2023/10/13 10:23:53;;;;;;;8.27;3.65;;;;;;;23.26;51.01;98837.31;7256281;40;20257;31
2023/10/13 10:29:14;;;;;;;6.45;4.10;;;;;;;23.45;50.16;98839.75;7224573;40;20252;31
2023/10/13 10:34:51;;;;;;;9.50;4.55;;;;;;;23.52;52.39;98837.66;7257216;40;20271;31
2023/10/13 10:45:33;;;;;;;6.47;3.87;;;;;;;23.39;52.59;98827.00;7296608;39;20283;31
2023/10/13 10:56:20;;;;;;;11.77;4.20;;;;;;;23.39;52.02;98829.75;7362260;39;20314;31
2023/10/13 11:01:58;;;;;;;8.00;4.00;;;;;;;23.47;52.19;98808.16;7361516;39;20388;31
2023/10/13 11:07:31;;;;;;;8.96;4.04;;;;;;;23.67;51.66;98799.25;7298286;40;20246;31
2023/10/13 11:13:13;;;;;;;7.65;4.10;;;;;;;23.87;50.13;98796.66;7297600;39;20260;31
2023/10/13 11:18:47;;;;;;;8.05;4.25;;;;;;;24.05;50.16;98784.41;7330618;39;20266;31
2023/10/13 11:24:22;;;;;;;12.75;4.57;;;;;;;24.20;49.38;98777.16;7346102;39;20306;31
2023/10/13 11:30:05;;;;;;;7.05;3.72;;;;;;;24.45;48.61;98776.47;7309573;39;20263;31
2023/10/13 11:35:20;;;;;;;6.24;3.94;;;;;;;24.65;48.25;98773.00;7304126;39;20295;31
2023/10/13 11:41:08;;;;;;;12.43;4.90;;;;;;;24.74;48.15;98763.12;7265088;39;20237;31
2023/10/13 11:52:17;;;;;;;7.55;3.83;;;;;;;25.13;47.55;98742.34;7265308;39;20364;31
2023/10/13 11:57:38;;;;;;;12.25;4.50;;;;;;;25.28;46.31;98732.41;7319661;39;20264;31
2023/10/13 12:13:55;;;;;;;11.73;4.30;;;;;;;25.50;45.90;98714.50;7334941;39;20344;31
2023/10/13 12:19:34;;;;;;;9.10;3.78;;;;;;;25.34;45.35;98709.25;7290196;39;20253;31
2023/10/13 12:24:54;;;;;;;8.10;4.00;;;;;;;25.27;46.00;98703.19;7287140;40;20244;31
2023/10/13 12:30:48;;;;;;;8.25;3.80;;;;;;;25.54;45.72;98692.72;7322904;39;20260;31
2023/10/13 12:36:14;;;;;;;7.55;4.20;;;;;;;25.58;44.01;98688.34;7339316;39;20436;31
2023/10/13 12:52:51;;;;;;;9.65;4.57;;;;;;;26.09;43.80;98667.00;7295509;39;20296;31
2023/10/13 12:58:11;;;;;;;7.67;4.05;;;;;;;26.16;43.38;98663.94;7118529;39;21202;31
2023/10/13 13:03:32;;;;;;;10.76;3.80;;;;;;;25.90;43.10;98657.63;7360663;39;20255;31
2023/10/13 13:09:09;;;;;;;8.52;3.60;;;;;;;25.89;43.35;98650.47;7358329;39;20259;31
2023/10/13 13:14:30;;;;;;;9.55;3.97;;;;;;;25.99;42.72;98644.91;7298955;40;20338;31
2023/10/13 13:20:11;;;;;;;8.10;3.75;;;;;;;26.07;41.88;98629.69;7310063;39;20315;31
2023/10/13 13:25:42;;;;;;;7.00;3.45;;;;;;;26.18;42.53;98628.56;7325746;39;20260;31
2023/10/13 13:31:05;;;;;;;6.60;3.72;;;;;;;26.31;40.99;98619.72;7284441;39;20438;31
2023/10/13 13:36:37;;;;;;;12.40;3.80;;;;;;;26.38;41.28;98598.94;7355747;39;20247;31
2023/10/13 13:42:17;;;;;;;7.30;3.87;;;;;;;26.47;40.65;98596.41;7315446;39;20260;31
2023/10/13 13:47:53;;;;;;;8.87;3.63;;;;;;;26.56;40.38;98586.41;7347376;39;20300;31
2023/10/13 13:53:31;;;;;;;9.25;3.90;;;;;;;26.62;40.64;98581.69;7310176;39;20242;31
2023/10/13 13:59:07;;;;;;;8.57;4.10;;;;;;;26.58;39.80;98569.53;7268046;39;20329;31
2023/10/13 14:04:39;;;;;;;13.75;3.87;;;;;;;26.62;40.81;98571.44;7308248;39;20256;31
2023/10/13 14:10:06;;;;;;;7.80;4.10;;;;;;;26.65;39.98;98559.81;7265261;40;20253;31
2023/10/13 14:15:43;;;;;;;9.64;3.72;;;;;;;26.55;39.94;98542.47;7354743;39;20266;31
2023/10/13 14:21:03;;;;;;;7.97;3.70;;;;;;;26.52;40.59;98535.56;7320833;39;20256;31
2023/10/13 14:26:20;;;;;;;8.85;3.12;;;;;;;26.52;39.89;98535.56;7350270;39;20248;31
2023/10/13 14:31:54;;;;;;;8.25;3.25;;;;;;;26.46;39.76;98533.94;7353788;39;20247;31
2023/10/13 14:37:30;;;;;;;11.55;3.60;;;;;;;26.34;40.22;98517.69;7308759;39;20425;31
2023/10/13 14:43:04;;;;;;;6.85;3.60;;;;;;;26.29;40.46;98503.06;7347883;39;20279;31
2023/10/13 14:48:41;;;;;;;9.25;3.10;;;;;;;26.24;39.77;98494.84;7300034;39;20265;31
2023/10/13 14:54:16;;;;;;;11.60;3.50;;;;;;;26.22;39.78;98494.28;7300038;39;20230;31
2023/10/13 14:59:38;;;;;;;7.05;3.50;;;;;;;26.15;39.81;98488.22;7257234;40;20316;31
2023/10/13 15:05:10;;;;;;;5.32;3.15;;;;;;;26.08;39.56;98487.69;7271282;39;20332;31
2023/10/13 15:10:45;;;;;;;9.55;3.67;;;;;;;26.00;39.93;98465.09;7295808;39;20326;31
2023/10/13 15:16:28;;;;;;;8.50;3.40;;;;;;;25.95;39.15;98461.53;7295471;39;20330;31
2023/10/13 15:22:06;;;;;;;5.64;3.20;;;;;;;25.92;39.28;98462.94;7336598;39;20266;31
2023/10/13 15:27:28;;;;;;;9.95;3.30;;;;;;;25.85;39.33;98453.28;7268974;40;20297;31
2023/10/13 15:32:48;;;;;;;12.70;3.60;;;;;;;25.72;39.83;98440.91;7265993;40;20303;31
2023/10/13 15:38:24;;;;;;;10.60;3.50;;;;;;;25.61;39.86;98432.97;7286625;39;20447;31
2023/10/13 15:43:58;;;;;;;7.54;3.64;;;;;;;25.58;40.46;98430.78;7275763;40;20324;31
2023/10/13 15:49:33;;;;;;;6.35;3.25;;;;;;;25.41;40.93;98422.78;7306236;39;20253;31
2023/10/13 15:55:13;;;;;;;9.10;3.40;;;;;;;25.34;41.63;98419.53;7317545;39;20284;31
2023/10/13 16:00:46;;;;;;;9.37;3.57;;;;;;;25.28;41.78;98412.34;7270087;40;20257;31
2023/10/13 16:06:25;;;;;;;10.27;3.72;;;;;;;25.20;42.33;98412.94;7256936;40;20242;31
2023/10/13 16:11:58;;;;;;;12.02;3.80;;;;;;;25.11;42.43;98405.25;7240028;40;20246;31
2023/10/13 16:17:33;;;;;;;10.32;4.00;;;;;;;24.95;44.08;98405.56;7267981;40;20352;31
2023/10/13 16:23:09;;;;;;;5.78;3.54;;;;;;;24.62;44.87;98398.66;7229063;40;20258;31
2023/10/13 16:28:45;;;;;;;6.70;3.90;;;;;;;24.35;44.74;98400.91;7220179;40;20344;31
2023/10/13 16:34:07;;;;;;;9.30;4.40;;;;;;;24.17;44.87;98400.34;7226759;40;20377;31
2023/10/13 16:39:41;;;;;;;8.55;3.80;;;;;;;24.03;45.46;98414.88;7294957;39;20337;31
2023/10/13 16:45:17;;;;;;;5.80;3.47;;;;;;;23.99;44.76;98406.34;7287079;40;20257;31
2023/10/13 16:50:50;;;;;;;5.80;3.20;;;;;;;24.04;42.69;98403.59;7246039;40;20268;31
2023/10/13 16:56:25;;;;;;;6.15;3.20;;;;;;;24.00;42.51;98396.16;7327559;39;20251;31
2023/10/13 17:02:04;;;;;;;6.30;2.98;;;;;;;23.95;40.19;98388.72;7291611;39;20260;31
2023/10/13 17:07:22;;;;;;;8.22;2.80;;;;;;;24.00;40.38;98388.69;7267560;40;20335;31
2023/10/13 17:12:56;;;;;;;4.95;2.60;;;;;;;23.95;39.43;98380.47;7298273;39;20279;31
2023/10/13 17:18:33;;;;;;;5.36;2.66;;;;;;;23.94;38.46;98384.31;7302748;39;20353;31
2023/10/13 17:24:07;;;;;;;4.82;2.45;;;;;;;24.01;37.47;98384.84;7312266;39;20280;31
2023/10/13 17:29:30;;;;;;;3.75;2.30;;;;;;;24.10;37.55;98376.87;7321957;39;20263;31
2023/10/13 17:35:03;;;;;;;8.32;2.88;;;;;;;24.16;35.33;98378.56;7330783;39;20244;31
2023/10/13 17:40:26;;;;;;;6.00;2.60;;;;;;;24.27;35.69;98373.88;7347683;39;20274;31
2023/10/13 17:45:45;;;;;;;4.96;2.44;;;;;;;24.33;35.32;98353.50;7382319;39;20436;31
2023/10/13 17:51:23;;;;;;;4.65;2.65;;;;;;;24.26;34.92;98345.53;7378599;39;20305;31
2023/10/13 17:56:41;;;;;;;5.43;2.80;;;;;;;24.19;35.90;98351.31;7308793;39;20240;31
2023/10/13 18:02:17;;;;;;;4.14;2.58;;;;;;;24.08;36.47;98348.81;7298090;39;20345;31
2023/10/13 18:07:52;;;;;;;4.00;2.67;;;;;;;24.12;35.33;98359.00;7214114;40;20261;31
2023/10/13 18:13:26;;;;;;;5.96;2.86;;;;;;;24.39;34.98;98349.66;7244687;40;20476;31
2023/10/13 18:19:01;;;;;;;6.80;2.80;;;;;;;24.41;34.94;98340.00;7217208;40;20258;31
2023/10/13 18:24:35;;;;;;;4.45;2.30;;;;;;;24.49;34.64;98333.94;7205863;40;20250;31
2023/10/13 18:29:55;;;;;;;3.47;2.65;;;;;;;24.61;33.69;98344.69;7191468;40;20294;31
2023/10/13 18:35:15;;;;;;;5.98;2.84;;;;;;;24.63;34.31;98339.69;7234063;39;20323;31
2023/10/13 18:40:48;;;;;;;4.30;2.60;;;;;;;24.57;34.58;98335.31;7323336;39;20271;31
2023/10/13 18:46:25;;;;;;;10.47;2.80;;;;;;;24.65;33.85;98321.78;7295747;40;20420;31
2023/10/13 18:51:44;;;;;;;5.50;2.70;;;;;;;24.68;33.82;98331.44;7249055;40;20249;31
2023/10/13 18:57:18;;;;;;;4.00;2.60;;;;;;;24.66;34.70;98326.19;7272142;40;20326;31
2023/10/13 19:02:40;;;;;;;4.50;2.50;;;;;;;24.66;35.02;98333.66;7291094;39;20549;31
2023/10/13 19:08:17;;;;;;;6.25;2.80;;;;;;;24.61;34.81;98317.13;7275230;40;20265;31
2023/10/13 19:18:58;;;;;;;6.53;2.85;;;;;;;24.49;35.08;98316.56;7211670;40;20256;31
2023/10/13 19:24:44;;;;;;;4.30;2.80;;;;;;;24.45;35.98;98319.06;7095166;39;20245;31
2023/10/13 19:30:21;;;;;;;4.82;2.85;;;;;;;24.42;36.02;98311.34;7224140;40;20280;31
2023/10/13 19:35:54;;;;;;;5.40;2.70;;;;;;;24.39;36.20;98316.59;7258597;40;20257;31
2023/10/13 19:41:31;;;;;;;5.52;2.94;;;;;;;24.34;36.53;98316.59;7226987;40;20449;31
2023/10/13 19:46:49;;;;;;;7.22;2.58;;;;;;;24.36;36.15;98308.87;7242948;40;20256;31
2023/10/13 19:52:25;;;;;;;7.23;3.17;;;;;;;24.25;37.34;98305.31;7263367;40;20306;31
2023/10/13 19:58:00;;;;;;;7.85;3.33;;;;;;;24.22;36.63;98306.69;7225814;40;20253;31
2023/10/13 20:03:35;;;;;;;7.43;3.20;;;;;;;24.26;37.16;98309.72;7235540;40;20252;31
2023/10/13 20:09:08;;;;;;;4.35;2.90;;;;;;;24.13;36.93;98313.81;7218921;40;20262;31
2023/10/13 20:14:43;;;;;;;7.92;3.26;;;;;;;24.08;38.25;98327.59;7269621;39;20268;31
2023/10/13 20:20:18;;;;;;;6.36;3.14;;;;;;;23.98;37.51;98311.06;7221471;40;20300;31
2023/10/13 20:25:54;;;;;;;6.55;3.30;;;;;;;23.94;38.93;98323.75;7239012;40;20280;31
2023/10/13 20:36:23;;;;;;;4.68;3.10;;;;;;;23.87;39.33;98320.41;7264237;40;20281;31
2023/10/13 20:41:55;;;;;;;4.95;3.00;;;;;;;23.79;39.28;98351.22;7290365;39;20321;31
2023/10/13 20:47:17;;;;;;;6.70;3.53;;;;;;;23.78;40.15;98328.38;7268594;39;21423;31
2023/10/13 20:52:36;;;;;;;5.55;3.35;;;;;;;23.70;39.59;98331.69;7302731;40;20348;31
2023/10/13 20:58:13;;;;;;;5.50;3.15;;;;;;;23.60;41.23;98317.09;7285583;40;20430;31
2023/10/13 21:03:48;;;;;;;4.62;3.20;;;;;;;23.56;40.98;98324.25;7269597;40;20413;31
2023/10/13 21:09:14;;;;;;;4.85;3.65;;;;;;;23.68;41.91;98346.81;7275518;40;20344;31
2023/10/13 21:14:42;;;;;;;8.60;3.83;;;;;;;23.72;42.88;98345.19;7265860;40;20257;31
2023/10/13 21:20:17;;;;;;;8.20;3.62;;;;;;;23.76;43.90;98343.53;7317724;39;20252;31
2023/10/13 21:25:52;;;;;;;8.46;3.82;;;;;;;23.79;43.90;98340.22;7339245;39;20263;31
2023/10/13 21:31:28;;;;;;;8.05;4.00;;;;;;;23.82;44.52;98345.22;7296801;39;20319;31
2023/10/13 21:36:48;;;;;;;5.75;3.90;;;;;;;23.85;44.75;98338.31;7255331;40;20283;31
2023/10/13 21:42:08;;;;;;;10.18;3.94;;;;;;;23.87;45.48;98342.44;7267160;39;20460;31
2023/10/13 21:47:45;;;;;;;7.38;4.48;;;;;;;23.84;45.56;98340.22;7245208;40;20268;31
2023/10/13 21:53:07;;;;;;;7.72;4.03;;;;;;;23.84;45.53;98351.25;7248179;40;20285;31
2023/10/13 21:58:27;;;;;;;8.15;3.90;;;;;;;23.81;45.85;98349.03;7244829;40;20281;31
2023/10/13 22:04:20;;;;;;;11.65;4.70;;;;;;;23.76;46.95;98357.28;7234481;40;20257;31
2023/10/13 22:09:47;;;;;;;7.90;4.18;;;;;;;23.76;47.57;98349.03;7245939;40;20350;31
2023/10/13 22:15:08;;;;;;;13.00;4.30;;;;;;;23.74;46.70;98349.28;7187993;40;20281;31
2023/10/13 22:25:49;;;;;;;9.50;4.55;;;;;;;23.69;47.80;98341.06;7238891;40;20280;31
2023/10/13 22:31:25;;;;;;;11.57;4.05;;;;;;;23.68;47.89;98322.06;7310050;39;20256;31
2023/10/13 22:37:00;;;;;;;11.30;4.20;;;;;;;23.68;48.47;98331.13;7297511;39;20283;31
2023/10/13 22:42:37;;;;;;;8.00;4.53;;;;;;;23.60;47.98;98315.16;7218770;40;20422;31
2023/10/13 22:47:57;;;;;;;7.34;4.70;;;;;;;23.61;48.22;98316.78;7165715;40;20510;31
2023/10/13 22:53:33;;;;;;;9.27;4.45;;;;;;;23.58;48.20;98311.00;7150120;40;20342;31
2023/10/13 22:59:12;;;;;;;7.80;5.15;;;;;;;23.53;48.50;98308.25;7174892;40;20262;31
2023/10/13 23:04:50;;;;;;;14.00;5.20;;;;;;;23.51;48.16;98285.72;7201620;40;20259;31
2023/10/13 23:10:32;;;;;;;10.02;4.82;;;;;;;23.51;48.41;98304.97;7239444;40;20257;31
2023/10/13 23:15:44;;;;;;;6.65;4.03;;;;;;;23.43;48.35;98300.78;7268358;40;20259;31
2023/10/13 23:21:06;;;;;;;8.15;4.20;;;;;;;23.47;49.40;98315.69;7283071;40;20287;31
2023/10/13 23:31:45;;;;;;;12.73;5.15;;;;;;;23.46;48.57;98291.19;7323909;39;20344;31
2023/10/13 23:37:10;;;;;;;10.75;5.00;;;;;;;23.48;49.51;98300.81;7263631;40;20256;31
2023/10/13 23:42:54;;;;;;;8.38;5.35;;;;;;;23.47;48.77;98293.69;7298372;39;21432;31
2023/10/13 23:53:33;;;;;;;11.70;5.20;;;;;;;23.43;49.98;98298.03;7314962;39;20267;31
2023/10/13 23:59:19;;;;;;;10.83;4.97;;;;;;;23.46;50.80;98282.94;7261559;40;20428;31
